sensor_id;sensor_type;location;lat;lon;timestamp;P1;durP1;ratioP1;P2;durP2;ratioP2
36383;SDS011;22418;51.210;6.976;2024-01-10T00:02:04;26.38;;;8.88;;
36383;SDS011;22418;51.210;6.976;2024-01-10T00:04:35;21.48;;;8.68;;
36383;SDS011;22418;51.210;6.976;2024-01-10T00:07:05;21.55;;;8.02;;
36383;SDS011;22418;51.210;6.976;2024-01-10T00:09:36;20.83;;;8.73;;
36383;SDS011;22418;51.210;6.976;2024-01-10T00:12:06;22.15;;;8.93;;
36383;SDS011;22418;51.210;6.976;2024-01-10T00:14:37;20.05;;;8.60;;
36383;SDS011;22418;51.210;6.976;2024-01-10T00:17:08;20.90;;;8.75;;
36383;SDS011;22418;51.210;6.976;2024-01-10T00:19:38;19.85;;;8.20;;
36383;SDS011;22418;51.210;6.976;2024-01-10T00:22:09;26.27;;;9.00;;
36383;SDS011;22418;51.210;6.976;2024-01-10T00:24:39;21.77;;;8.88;;
36383;SDS011;22418;51.210;6.976;2024-01-10T00:27:10;22.30;;;8.23;;
36383;SDS011;22418;51.210;6.976;2024-01-10T00:29:40;22.67;;;8.25;;
36383;SDS011;22418;51.210;6.976;2024-01-10T00:32:11;23.17;;;8.32;;
36383;SDS011;22418;51.210;6.976;2024-01-10T00:34:41;22.98;;;9.00;;
36383;SDS011;22418;51.210;6.976;2024-01-10T00:37:12;19.70;;;8.10;;
36383;SDS011;22418;51.210;6.976;2024-01-10T00:39:42;22.80;;;8.40;;
36383;SDS011;22418;51.210;6.976;2024-01-10T00:42:13;24.10;;;8.45;;
36383;SDS011;22418;51.210;6.976;2024-01-10T00:44:43;22.83;;;8.55;;
36383;SDS011;22418;51.210;6.976;2024-01-10T00:47:14;20.83;;;7.70;;
36383;SDS011;22418;51.210;6.976;2024-01-10T00:49:45;25.08;;;9.77;;
36383;SDS011;22418;51.210;6.976;2024-01-10T00:52:15;23.55;;;8.55;;
36383;SDS011;22418;51.210;6.976;2024-01-10T00:54:46;24.55;;;9.45;;
36383;SDS011;22418;51.210;6.976;2024-01-10T00:57:16;20.90;;;8.82;;
36383;SDS011;22418;51.210;6.976;2024-01-10T00:59:47;21.10;;;8.35;;
36383;SDS011;22418;51.210;6.976;2024-01-10T01:02:17;21.83;;;8.80;;
36383;SDS011;22418;51.210;6.976;2024-01-10T01:04:48;21.77;;;9.02;;
36383;SDS011;22418;51.210;6.976;2024-01-10T01:07:18;24.10;;;8.77;;
36383;SDS011;22418;51.210;6.976;2024-01-10T01:09:49;22.58;;;8.50;;
36383;SDS011;22418;51.210;6.976;2024-01-10T01:12:20;22.50;;;8.35;;
36383;SDS011;22418;51.210;6.976;2024-01-10T01:14:50;19.73;;;8.40;;
36383;SDS011;22418;51.210;6.976;2024-01-10T01:17:21;21.35;;;8.43;;
36383;SDS011;22418;51.210;6.976;2024-01-10T01:19:51;19.63;;;8.43;;
36383;SDS011;22418;51.210;6.976;2024-01-10T01:22:22;17.63;;;7.93;;
36383;SDS011;22418;51.210;6.976;2024-01-10T01:24:52;24.13;;;8.75;;
36383;SDS011;22418;51.210;6.976;2024-01-10T01:27:23;23.92;;;8.52;;
36383;SDS011;22418;51.210;6.976;2024-01-10T01:29:54;22.70;;;8.70;;
36383;SDS011;22418;51.210;6.976;2024-01-10T01:32:24;22.52;;;8.20;;
36383;SDS011;22418;51.210;6.976;2024-01-10T01:34:55;21.80;;;8.82;;
36383;SDS011;22418;51.210;6.976;2024-01-10T01:37:25;21.98;;;8.60;;
36383;SDS011;22418;51.210;6.976;2024-01-10T01:39:56;23.00;;;7.95;;
36383;SDS011;22418;51.210;6.976;2024-01-10T01:42:26;22.25;;;7.20;;
36383;SDS011;22418;51.210;6.976;2024-01-10T01:44:57;23.05;;;8.57;;
36383;SDS011;22418;51.210;6.976;2024-01-10T01:47:27;21.48;;;8.52;;
36383;SDS011;22418;51.210;6.976;2024-01-10T01:49:58;22.25;;;8.80;;
36383;SDS011;22418;51.210;6.976;2024-01-10T01:52:29;20.13;;;8.13;;
36383;SDS011;22418;51.210;6.976;2024-01-10T01:55:01;29.50;;;9.23;;
36383;SDS011;22418;51.210;6.976;2024-01-10T01:57:32;21.85;;;8.55;;
36383;SDS011;22418;51.210;6.976;2024-01-10T02:00:03;23.10;;;8.27;;
36383;SDS011;22418;51.210;6.976;2024-01-10T02:02:34;24.02;;;9.70;;
36383;SDS011;22418;51.210;6.976;2024-01-10T02:05:06;23.15;;;9.38;;
36383;SDS011;22418;51.210;6.976;2024-01-10T02:07:37;21.08;;;8.73;;
36383;SDS011;22418;51.210;6.976;2024-01-10T02:10:07;18.98;;;7.93;;
36383;SDS011;22418;51.210;6.976;2024-01-10T02:12:38;20.33;;;8.18;;
36383;SDS011;22418;51.210;6.976;2024-01-10T02:15:09;20.40;;;8.38;;
36383;SDS011;22418;51.210;6.976;2024-01-10T02:17:39;26.13;;;8.02;;
36383;SDS011;22418;51.210;6.976;2024-01-10T02:20:11;20.55;;;8.25;;
36383;SDS011;22418;51.210;6.976;2024-01-10T02:22:48;18.50;;;8.10;;
36383;SDS011;22418;51.210;6.976;2024-01-10T02:25:20;21.48;;;8.93;;
36383;SDS011;22418;51.210;6.976;2024-01-10T02:30:22;22.97;;;8.33;;
36383;SDS011;22418;51.210;6.976;2024-01-10T02:32:52;28.17;;;8.48;;
36383;SDS011;22418;51.210;6.976;2024-01-10T02:35:23;23.80;;;8.65;;
36383;SDS011;22418;51.210;6.976;2024-01-10T02:37:54;24.88;;;9.02;;
36383;SDS011;22418;51.210;6.976;2024-01-10T02:40:24;21.13;;;7.75;;
36383;SDS011;22418;51.210;6.976;2024-01-10T02:42:55;21.60;;;8.02;;
36383;SDS011;22418;51.210;6.976;2024-01-10T02:45:25;25.17;;;8.18;;
36383;SDS011;22418;51.210;6.976;2024-01-10T02:47:56;26.05;;;8.95;;
36383;SDS011;22418;51.210;6.976;2024-01-10T02:50:26;22.42;;;8.27;;
36383;SDS011;22418;51.210;6.976;2024-01-10T02:52:57;23.60;;;7.93;;
36383;SDS011;22418;51.210;6.976;2024-01-10T02:55:28;19.58;;;7.97;;
36383;SDS011;22418;51.210;6.976;2024-01-10T02:57:58;20.73;;;8.18;;
36383;SDS011;22418;51.210;6.976;2024-01-10T03:00:29;19.52;;;7.60;;
36383;SDS011;22418;51.210;6.976;2024-01-10T03:02:59;21.08;;;8.60;;
36383;SDS011;22418;51.210;6.976;2024-01-10T03:05:30;24.05;;;9.48;;
36383;SDS011;22418;51.210;6.976;2024-01-10T03:08:00;24.60;;;8.50;;
36383;SDS011;22418;51.210;6.976;2024-01-10T03:10:32;22.88;;;8.88;;
36383;SDS011;22418;51.210;6.976;2024-01-10T03:13:02;20.35;;;8.35;;
36383;SDS011;22418;51.210;6.976;2024-01-10T03:15:33;20.35;;;7.78;;
36383;SDS011;22418;51.210;6.976;2024-01-10T03:18:03;20.17;;;7.30;;
36383;SDS011;22418;51.210;6.976;2024-01-10T03:20:34;22.02;;;8.80;;
36383;SDS011;22418;51.210;6.976;2024-01-10T03:23:05;23.50;;;9.05;;
36383;SDS011;22418;51.210;6.976;2024-01-10T03:28:06;21.13;;;7.93;;
36383;SDS011;22418;51.210;6.976;2024-01-10T03:30:37;27.90;;;9.38;;
36383;SDS011;22418;51.210;6.976;2024-01-10T03:33:07;21.60;;;9.57;;
36383;SDS011;22418;51.210;6.976;2024-01-10T03:35:38;19.33;;;7.93;;
36383;SDS011;22418;51.210;6.976;2024-01-10T03:38:08;20.98;;;8.40;;
36383;SDS011;22418;51.210;6.976;2024-01-10T03:40:39;25.98;;;8.57;;
36383;SDS011;22418;51.210;6.976;2024-01-10T03:43:09;21.63;;;8.85;;
36383;SDS011;22418;51.210;6.976;2024-01-10T03:45:42;20.95;;;8.00;;
36383;SDS011;22418;51.210;6.976;2024-01-10T03:48:12;22.40;;;8.30;;
36383;SDS011;22418;51.210;6.976;2024-01-10T03:50:43;21.55;;;7.97;;
36383;SDS011;22418;51.210;6.976;2024-01-10T03:53:13;23.30;;;8.98;;
36383;SDS011;22418;51.210;6.976;2024-01-10T03:55:44;20.63;;;8.63;;
36383;SDS011;22418;51.210;6.976;2024-01-10T03:58:14;20.48;;;8.57;;
36383;SDS011;22418;51.210;6.976;2024-01-10T04:00:45;29.75;;;9.38;;
36383;SDS011;22418;51.210;6.976;2024-01-10T04:03:15;22.95;;;8.30;;
36383;SDS011;22418;51.210;6.976;2024-01-10T04:05:46;24.08;;;8.77;;
36383;SDS011;22418;51.210;6.976;2024-01-10T04:08:17;25.23;;;9.10;;
36383;SDS011;22418;51.210;6.976;2024-01-10T04:10:47;23.38;;;8.88;;
36383;SDS011;22418;51.210;6.976;2024-01-10T04:13:18;23.13;;;8.18;;
36383;SDS011;22418;51.210;6.976;2024-01-10T04:15:48;22.45;;;8.75;;
36383;SDS011;22418;51.210;6.976;2024-01-10T04:18:19;24.45;;;9.43;;
36383;SDS011;22418;51.210;6.976;2024-01-10T04:20:49;22.73;;;9.82;;
36383;SDS011;22418;51.210;6.976;2024-01-10T04:23:20;23.33;;;8.63;;
36383;SDS011;22418;51.210;6.976;2024-01-10T04:25:51;24.00;;;8.45;;
36383;SDS011;22418;51.210;6.976;2024-01-10T04:28:21;25.05;;;9.10;;
36383;SDS011;22418;51.210;6.976;2024-01-10T04:30:52;23.92;;;9.07;;
36383;SDS011;22418;51.210;6.976;2024-01-10T04:33:22;26.50;;;8.93;;
36383;SDS011;22418;51.210;6.976;2024-01-10T04:35:53;24.00;;;8.98;;
36383;SDS011;22418;51.210;6.976;2024-01-10T04:38:23;22.50;;;8.82;;
36383;SDS011;22418;51.210;6.976;2024-01-10T04:40:56;26.60;;;10.10;;
36383;SDS011;22418;51.210;6.976;2024-01-10T04:43:27;23.15;;;9.95;;
36383;SDS011;22418;51.210;6.976;2024-01-10T04:45:57;22.67;;;9.63;;
36383;SDS011;22418;51.210;6.976;2024-01-10T04:48:28;25.73;;;9.88;;
36383;SDS011;22418;51.210;6.976;2024-01-10T04:50:58;25.35;;;9.43;;
36383;SDS011;22418;51.210;6.976;2024-01-10T04:53:29;27.75;;;10.38;;
36383;SDS011;22418;51.210;6.976;2024-01-10T04:55:59;23.92;;;9.27;;
36383;SDS011;22418;51.210;6.976;2024-01-10T04:58:30;27.92;;;9.75;;
36383;SDS011;22418;51.210;6.976;2024-01-10T05:01:02;25.52;;;9.20;;
36383;SDS011;22418;51.210;6.976;2024-01-10T05:03:33;25.08;;;9.45;;
36383;SDS011;22418;51.210;6.976;2024-01-10T05:06:04;27.08;;;9.45;;
36383;SDS011;22418;51.210;6.976;2024-01-10T05:08:34;21.77;;;8.70;;
36383;SDS011;22418;51.210;6.976;2024-01-10T05:11:05;28.17;;;9.82;;
36383;SDS011;22418;51.210;6.976;2024-01-10T05:13:36;60.85;;;10.90;;
36383;SDS011;22418;51.210;6.976;2024-01-10T05:16:06;28.05;;;10.13;;
36383;SDS011;22418;51.210;6.976;2024-01-10T05:18:37;25.60;;;9.65;;
36383;SDS011;22418;51.210;6.976;2024-01-10T05:21:08;24.40;;;9.48;;
36383;SDS011;22418;51.210;6.976;2024-01-10T05:23:38;26.05;;;9.52;;
36383;SDS011;22418;51.210;6.976;2024-01-10T05:26:10;29.33;;;9.75;;
36383;SDS011;22418;51.210;6.976;2024-01-10T05:28:40;25.10;;;9.48;;
36383;SDS011;22418;51.210;6.976;2024-01-10T05:31:11;30.02;;;8.63;;
36383;SDS011;22418;51.210;6.976;2024-01-10T05:33:41;26.00;;;9.27;;
36383;SDS011;22418;51.210;6.976;2024-01-10T05:36:12;22.60;;;9.32;;
36383;SDS011;22418;51.210;6.976;2024-01-10T05:38:42;25.48;;;9.82;;
36383;SDS011;22418;51.210;6.976;2024-01-10T05:41:13;21.30;;;9.32;;
36383;SDS011;22418;51.210;6.976;2024-01-10T05:43:44;25.95;;;9.48;;
36383;SDS011;22418;51.210;6.976;2024-01-10T05:46:14;22.70;;;9.93;;
36383;SDS011;22418;51.210;6.976;2024-01-10T05:48:46;23.42;;;9.38;;
36383;SDS011;22418;51.210;6.976;2024-01-10T05:51:18;28.65;;;10.02;;
36383;SDS011;22418;51.210;6.976;2024-01-10T05:53:48;24.20;;;9.15;;
36383;SDS011;22418;51.210;6.976;2024-01-10T05:56:19;23.25;;;9.48;;
36383;SDS011;22418;51.210;6.976;2024-01-10T05:58:49;28.35;;;9.65;;
36383;SDS011;22418;51.210;6.976;2024-01-10T06:01:20;24.42;;;8.88;;
36383;SDS011;22418;51.210;6.976;2024-01-10T06:03:51;27.33;;;9.95;;
36383;SDS011;22418;51.210;6.976;2024-01-10T06:06:21;24.38;;;9.68;;
36383;SDS011;22418;51.210;6.976;2024-01-10T06:08:52;22.92;;;9.48;;
36383;SDS011;22418;51.210;6.976;2024-01-10T06:11:22;27.13;;;9.77;;
36383;SDS011;22418;51.210;6.976;2024-01-10T06:13:53;24.90;;;9.85;;
36383;SDS011;22418;51.210;6.976;2024-01-10T06:16:23;24.35;;;9.68;;
36383;SDS011;22418;51.210;6.976;2024-01-10T06:18:54;24.63;;;9.23;;
36383;SDS011;22418;51.210;6.976;2024-01-10T06:21:25;26.40;;;9.05;;
36383;SDS011;22418;51.210;6.976;2024-01-10T06:23:55;29.15;;;10.38;;
36383;SDS011;22418;51.210;6.976;2024-01-10T06:26:26;22.38;;;9.13;;
36383;SDS011;22418;51.210;6.976;2024-01-10T06:28:57;26.60;;;9.65;;
36383;SDS011;22418;51.210;6.976;2024-01-10T06:31:28;26.35;;;9.82;;
36383;SDS011;22418;51.210;6.976;2024-01-10T06:33:58;24.48;;;9.10;;
36383;SDS011;22418;51.210;6.976;2024-01-10T06:36:29;25.13;;;9.32;;
36383;SDS011;22418;51.210;6.976;2024-01-10T06:38:59;23.27;;;9.25;;
36383;SDS011;22418;51.210;6.976;2024-01-10T06:41:30;28.58;;;10.02;;
36383;SDS011;22418;51.210;6.976;2024-01-10T06:44:01;25.95;;;9.75;;
36383;SDS011;22418;51.210;6.976;2024-01-10T06:46:34;28.83;;;9.07;;
36383;SDS011;22418;51.210;6.976;2024-01-10T06:49:04;25.92;;;10.70;;
36383;SDS011;22418;51.210;6.976;2024-01-10T06:51:37;24.42;;;10.07;;
36383;SDS011;22418;51.210;6.976;2024-01-10T06:54:08;27.67;;;10.52;;
36383;SDS011;22418;51.210;6.976;2024-01-10T06:56:38;27.45;;;10.48;;
36383;SDS011;22418;51.210;6.976;2024-01-10T06:59:09;26.00;;;10.48;;
36383;SDS011;22418;51.210;6.976;2024-01-10T07:01:39;28.33;;;10.10;;
36383;SDS011;22418;51.210;6.976;2024-01-10T07:04:10;34.47;;;10.73;;
36383;SDS011;22418;51.210;6.976;2024-01-10T07:06:41;25.27;;;10.15;;
36383;SDS011;22418;51.210;6.976;2024-01-10T07:09:12;29.35;;;10.57;;
36383;SDS011;22418;51.210;6.976;2024-01-10T07:11:42;29.10;;;10.55;;
36383;SDS011;22418;51.210;6.976;2024-01-10T07:14:13;29.00;;;10.02;;
36383;SDS011;22418;51.210;6.976;2024-01-10T07:16:47;26.20;;;10.70;;
36383;SDS011;22418;51.210;6.976;2024-01-10T07:19:18;28.98;;;10.35;;
36383;SDS011;22418;51.210;6.976;2024-01-10T07:21:53;32.08;;;10.98;;
36383;SDS011;22418;51.210;6.976;2024-01-10T07:24:25;28.30;;;10.77;;
36383;SDS011;22418;51.210;6.976;2024-01-10T07:26:55;37.67;;;11.05;;
36383;SDS011;22418;51.210;6.976;2024-01-10T07:29:27;29.98;;;10.82;;
36383;SDS011;22418;51.210;6.976;2024-01-10T07:31:57;33.05;;;10.93;;
36383;SDS011;22418;51.210;6.976;2024-01-10T07:34:28;30.10;;;11.18;;
36383;SDS011;22418;51.210;6.976;2024-01-10T07:36:58;31.92;;;11.20;;
36383;SDS011;22418;51.210;6.976;2024-01-10T07:39:29;35.42;;;10.98;;
36383;SDS011;22418;51.210;6.976;2024-01-10T07:42:00;33.70;;;11.25;;
36383;SDS011;22418;51.210;6.976;2024-01-10T07:44:32;27.95;;;10.77;;
36383;SDS011;22418;51.210;6.976;2024-01-10T07:47:03;25.23;;;10.10;;
36383;SDS011;22418;51.210;6.976;2024-01-10T07:49:33;28.27;;;9.90;;
36383;SDS011;22418;51.210;6.976;2024-01-10T07:52:05;32.05;;;11.35;;
36383;SDS011;22418;51.210;6.976;2024-01-10T07:54:35;38.55;;;11.52;;
36383;SDS011;22418;51.210;6.976;2024-01-10T07:57:06;29.95;;;11.85;;
36383;SDS011;22418;51.210;6.976;2024-01-10T07:59:37;30.63;;;10.95;;
36383;SDS011;22418;51.210;6.976;2024-01-10T08:02:07;34.20;;;11.30;;
36383;SDS011;22418;51.210;6.976;2024-01-10T08:04:40;34.13;;;11.38;;
36383;SDS011;22418;51.210;6.976;2024-01-10T08:07:10;30.58;;;10.60;;
36383;SDS011;22418;51.210;6.976;2024-01-10T08:09:41;34.75;;;11.38;;
36383;SDS011;22418;51.210;6.976;2024-01-10T08:12:12;40.20;;;11.15;;
36383;SDS011;22418;51.210;6.976;2024-01-10T08:14:43;29.95;;;11.80;;
36383;SDS011;22418;51.210;6.976;2024-01-10T08:17:16;30.90;;;11.32;;
36383;SDS011;22418;51.210;6.976;2024-01-10T08:19:46;30.67;;;10.35;;
36383;SDS011;22418;51.210;6.976;2024-01-10T08:22:17;33.13;;;11.30;;
36383;SDS011;22418;51.210;6.976;2024-01-10T08:24:47;28.38;;;10.88;;
36383;SDS011;22418;51.210;6.976;2024-01-10T08:27:18;35.20;;;11.13;;
36383;SDS011;22418;51.210;6.976;2024-01-10T08:29:48;35.35;;;11.65;;
36383;SDS011;22418;51.210;6.976;2024-01-10T08:32:19;32.97;;;11.35;;
36383;SDS011;22418;51.210;6.976;2024-01-10T08:34:51;31.67;;;12.05;;
36383;SDS011;22418;51.210;6.976;2024-01-10T08:37:22;28.42;;;10.95;;
36383;SDS011;22418;51.210;6.976;2024-01-10T08:39:52;31.60;;;11.55;;
36383;SDS011;22418;51.210;6.976;2024-01-10T08:42:23;37.00;;;12.10;;
36383;SDS011;22418;51.210;6.976;2024-01-10T08:44:53;33.10;;;11.77;;
36383;SDS011;22418;51.210;6.976;2024-01-10T08:47:26;32.17;;;12.07;;
36383;SDS011;22418;51.210;6.976;2024-01-10T08:49:56;38.70;;;12.80;;
36383;SDS011;22418;51.210;6.976;2024-01-10T08:52:27;34.15;;;12.07;;
36383;SDS011;22418;51.210;6.976;2024-01-10T08:54:57;33.50;;;11.23;;
36383;SDS011;22418;51.210;6.976;2024-01-10T08:57:28;40.17;;;12.10;;
36383;SDS011;22418;51.210;6.976;2024-01-10T08:59:59;32.25;;;11.15;;
36383;SDS011;22418;51.210;6.976;2024-01-10T09:02:30;35.55;;;11.57;;
36383;SDS011;22418;51.210;6.976;2024-01-10T09:05:00;34.45;;;12.50;;
36383;SDS011;22418;51.210;6.976;2024-01-10T09:07:31;32.63;;;11.98;;
36383;SDS011;22418;51.210;6.976;2024-01-10T09:10:01;32.17;;;11.75;;
36383;SDS011;22418;51.210;6.976;2024-01-10T09:12:35;34.10;;;11.55;;
36383;SDS011;22418;51.210;6.976;2024-01-10T09:15:06;29.92;;;10.68;;
36383;SDS011;22418;51.210;6.976;2024-01-10T09:17:38;29.80;;;11.52;;
36383;SDS011;22418;51.210;6.976;2024-01-10T09:20:09;36.78;;;13.65;;
36383;SDS011;22418;51.210;6.976;2024-01-10T09:22:40;35.05;;;12.43;;
36383;SDS011;22418;51.210;6.976;2024-01-10T09:25:11;31.67;;;12.57;;
36383;SDS011;22418;51.210;6.976;2024-01-10T09:30:14;36.80;;;12.73;;
36383;SDS011;22418;51.210;6.976;2024-01-10T09:32:46;38.80;;;12.65;;
36383;SDS011;22418;51.210;6.976;2024-01-10T09:35:17;29.55;;;11.35;;
36383;SDS011;22418;51.210;6.976;2024-01-10T09:37:47;41.47;;;14.00;;
36383;SDS011;22418;51.210;6.976;2024-01-10T09:40:19;33.08;;;12.75;;
36383;SDS011;22418;51.210;6.976;2024-01-10T09:42:57;35.40;;;11.75;;
36383;SDS011;22418;51.210;6.976;2024-01-10T09:45:27;36.05;;;11.10;;
36383;SDS011;22418;51.210;6.976;2024-01-10T09:48:00;30.80;;;11.98;;
36383;SDS011;22418;51.210;6.976;2024-01-10T09:50:31;34.45;;;12.77;;
36383;SDS011;22418;51.210;6.976;2024-01-10T09:53:05;41.28;;;12.10;;
36383;SDS011;22418;51.210;6.976;2024-01-10T09:55:39;30.17;;;12.38;;
36383;SDS011;22418;51.210;6.976;2024-01-10T09:58:10;36.25;;;12.75;;
36383;SDS011;22418;51.210;6.976;2024-01-10T10:00:40;46.67;;;12.23;;
36383;SDS011;22418;51.210;6.976;2024-01-10T10:03:11;31.83;;;11.50;;
36383;SDS011;22418;51.210;6.976;2024-01-10T10:05:43;34.15;;;11.80;;
36383;SDS011;22418;51.210;6.976;2024-01-10T10:08:14;40.17;;;12.82;;
36383;SDS011;22418;51.210;6.976;2024-01-10T10:10:45;36.28;;;11.18;;
36383;SDS011;22418;51.210;6.976;2024-01-10T10:13:28;34.15;;;12.52;;
36383;SDS011;22418;51.210;6.976;2024-01-10T10:16:00;37.03;;;12.60;;
36383;SDS011;22418;51.210;6.976;2024-01-10T10:18:32;31.25;;;12.27;;
36383;SDS011;22418;51.210;6.976;2024-01-10T10:21:06;34.30;;;13.07;;
36383;SDS011;22418;51.210;6.976;2024-01-10T10:23:42;28.13;;;11.35;;
36383;SDS011;22418;51.210;6.976;2024-01-10T10:26:14;30.48;;;11.52;;
36383;SDS011;22418;51.210;6.976;2024-01-10T10:28:51;31.73;;;12.25;;
36383;SDS011;22418;51.210;6.976;2024-01-10T10:31:22;35.53;;;11.38;;
36383;SDS011;22418;51.210;6.976;2024-01-10T10:33:53;32.38;;;11.73;;
36383;SDS011;22418;51.210;6.976;2024-01-10T10:38:55;34.33;;;11.80;;
36383;SDS011;22418;51.210;6.976;2024-01-10T10:41:26;31.87;;;12.60;;
36383;SDS011;22418;51.210;6.976;2024-01-10T10:43:59;34.45;;;12.57;;
36383;SDS011;22418;51.210;6.976;2024-01-10T10:46:32;32.38;;;11.63;;
36383;SDS011;22418;51.210;6.976;2024-01-10T10:49:06;35.25;;;12.63;;
36383;SDS011;22418;51.210;6.976;2024-01-10T10:51:42;30.70;;;12.32;;
36383;SDS011;22418;51.210;6.976;2024-01-10T10:54:13;32.33;;;11.90;;
36383;SDS011;22418;51.210;6.976;2024-01-10T10:56:45;30.08;;;12.60;;
36383;SDS011;22418;51.210;6.976;2024-01-10T10:59:16;38.33;;;13.05;;
36383;SDS011;22418;51.210;6.976;2024-01-10T11:01:50;29.45;;;12.43;;
36383;SDS011;22418;51.210;6.976;2024-01-10T11:04:21;33.35;;;12.13;;
36383;SDS011;22418;51.210;6.976;2024-01-10T11:06:53;34.10;;;12.43;;
36383;SDS011;22418;51.210;6.976;2024-01-10T11:09:23;32.27;;;12.67;;
36383;SDS011;22418;51.210;6.976;2024-01-10T11:12:16;31.38;;;11.63;;
36383;SDS011;22418;51.210;6.976;2024-01-10T11:18:16;31.92;;;11.98;;
36383;SDS011;22418;51.210;6.976;2024-01-10T11:23:38;30.33;;;12.35;;
36383;SDS011;22418;51.210;6.976;2024-01-10T11:26:14;27.83;;;11.30;;
36383;SDS011;22418;51.210;6.976;2024-01-10T11:28:45;31.95;;;11.18;;
36383;SDS011;22418;51.210;6.976;2024-01-10T11:31:26;33.05;;;12.40;;
36383;SDS011;22418;51.210;6.976;2024-01-10T11:34:02;31.67;;;11.15;;
36383;SDS011;22418;51.210;6.976;2024-01-10T11:36:35;31.27;;;11.77;;
36383;SDS011;22418;51.210;6.976;2024-01-10T11:39:06;35.80;;;11.63;;
36383;SDS011;22418;51.210;6.976;2024-01-10T11:41:38;27.13;;;11.10;;
36383;SDS011;22418;51.210;6.976;2024-01-10T11:46:45;31.13;;;11.93;;
36383;SDS011;22418;51.210;6.976;2024-01-10T11:49:17;27.67;;;10.85;;
36383;SDS011;22418;51.210;6.976;2024-01-10T11:51:49;26.83;;;10.80;;
36383;SDS011;22418;51.210;6.976;2024-01-10T11:57:25;24.38;;;10.15;;
36383;SDS011;22418;51.210;6.976;2024-01-10T11:59:57;27.70;;;11.90;;
36383;SDS011;22418;51.210;6.976;2024-01-10T12:02:35;27.25;;;9.93;;
36383;SDS011;22418;51.210;6.976;2024-01-10T12:05:06;34.53;;;9.88;;
36383;SDS011;22418;51.210;6.976;2024-01-10T12:07:38;24.42;;;10.20;;
36383;SDS011;22418;51.210;6.976;2024-01-10T12:10:10;26.40;;;10.20;;
36383;SDS011;22418;51.210;6.976;2024-01-10T12:12:41;29.60;;;10.40;;
36383;SDS011;22418;51.210;6.976;2024-01-10T12:15:11;22.63;;;9.07;;
36383;SDS011;22418;51.210;6.976;2024-01-10T12:17:42;23.37;;;9.13;;
36383;SDS011;22418;51.210;6.976;2024-01-10T12:20:13;31.92;;;10.52;;
36383;SDS011;22418;51.210;6.976;2024-01-10T12:22:43;25.07;;;9.47;;
36383;SDS011;22418;51.210;6.976;2024-01-10T12:25:14;27.58;;;10.98;;
36383;SDS011;22418;51.210;6.976;2024-01-10T12:27:45;25.97;;;9.70;;
36383;SDS011;22418;51.210;6.976;2024-01-10T12:30:16;21.52;;;9.32;;
36383;SDS011;22418;51.210;6.976;2024-01-10T12:35:20;24.25;;;9.10;;
36383;SDS011;22418;51.210;6.976;2024-01-10T12:37:56;24.27;;;9.68;;
36383;SDS011;22418;51.210;6.976;2024-01-10T12:40:27;28.02;;;10.75;;
36383;SDS011;22418;51.210;6.976;2024-01-10T12:43:04;24.60;;;9.82;;
36383;SDS011;22418;51.210;6.976;2024-01-10T12:45:35;22.20;;;9.05;;
36383;SDS011;22418;51.210;6.976;2024-01-10T12:48:05;24.23;;;10.00;;
36383;SDS011;22418;51.210;6.976;2024-01-10T12:50:38;25.17;;;9.80;;
36383;SDS011;22418;51.210;6.976;2024-01-10T12:53:09;30.43;;;9.57;;
36383;SDS011;22418;51.210;6.976;2024-01-10T12:55:39;25.85;;;10.38;;
36383;SDS011;22418;51.210;6.976;2024-01-10T12:58:10;24.58;;;9.82;;
36383;SDS011;22418;51.210;6.976;2024-01-10T13:00:41;24.02;;;9.05;;
36383;SDS011;22418;51.210;6.976;2024-01-10T13:03:11;23.83;;;9.73;;
36383;SDS011;22418;51.210;6.976;2024-01-10T13:05:43;24.67;;;10.23;;
36383;SDS011;22418;51.210;6.976;2024-01-10T13:08:14;25.92;;;10.13;;
36383;SDS011;22418;51.210;6.976;2024-01-10T13:10:44;28.10;;;9.80;;
36383;SDS011;22418;51.210;6.976;2024-01-10T13:13:19;25.50;;;10.05;;
36383;SDS011;22418;51.210;6.976;2024-01-10T13:15:51;25.05;;;11.27;;
36383;SDS011;22418;51.210;6.976;2024-01-10T13:18:22;26.60;;;10.57;;
36383;SDS011;22418;51.210;6.976;2024-01-10T13:20:52;28.27;;;10.43;;
36383;SDS011;22418;51.210;6.976;2024-01-10T13:23:23;24.48;;;9.88;;
36383;SDS011;22418;51.210;6.976;2024-01-10T13:25:54;29.08;;;11.23;;
36383;SDS011;22418;51.210;6.976;2024-01-10T13:28:25;24.80;;;10.65;;
36383;SDS011;22418;51.210;6.976;2024-01-10T13:30:55;22.60;;;9.77;;
36383;SDS011;22418;51.210;6.976;2024-01-10T13:33:26;28.40;;;10.05;;
36383;SDS011;22418;51.210;6.976;2024-01-10T13:35:56;22.73;;;10.33;;
36383;SDS011;22418;51.210;6.976;2024-01-10T13:38:27;29.97;;;11.50;;
36383;SDS011;22418;51.210;6.976;2024-01-10T13:40:57;26.47;;;10.07;;
36383;SDS011;22418;51.210;6.976;2024-01-10T13:43:28;26.20;;;10.32;;
36383;SDS011;22418;51.210;6.976;2024-01-10T13:45:59;24.63;;;9.83;;
36383;SDS011;22418;51.210;6.976;2024-01-10T13:48:31;23.70;;;10.15;;
36383;SDS011;22418;51.210;6.976;2024-01-10T13:51:01;26.50;;;11.27;;
36383;SDS011;22418;51.210;6.976;2024-01-10T13:53:32;23.30;;;9.93;;
36383;SDS011;22418;51.210;6.976;2024-01-10T13:56:03;26.13;;;9.80;;
36383;SDS011;22418;51.210;6.976;2024-01-10T13:58:33;22.70;;;9.77;;
36383;SDS011;22418;51.210;6.976;2024-01-10T14:01:04;26.90;;;10.83;;
36383;SDS011;22418;51.210;6.976;2024-01-10T14:03:34;26.60;;;10.67;;
36383;SDS011;22418;51.210;6.976;2024-01-10T14:08:36;27.50;;;10.13;;
36383;SDS011;22418;51.210;6.976;2024-01-10T14:11:08;24.35;;;10.13;;
36383;SDS011;22418;51.210;6.976;2024-01-10T14:13:39;29.90;;;10.83;;
36383;SDS011;22418;51.210;6.976;2024-01-10T14:16:09;26.40;;;10.70;;
36383;SDS011;22418;51.210;6.976;2024-01-10T14:18:41;31.30;;;11.25;;
36383;SDS011;22418;51.210;6.976;2024-01-10T14:21:11;29.53;;;10.90;;
36383;SDS011;22418;51.210;6.976;2024-01-10T14:23:42;23.90;;;10.80;;
36383;SDS011;22418;51.210;6.976;2024-01-10T14:26:14;31.40;;;10.38;;
36383;SDS011;22418;51.210;6.976;2024-01-10T14:28:45;36.33;;;12.93;;
36383;SDS011;22418;51.210;6.976;2024-01-10T14:31:16;31.47;;;12.93;;
36383;SDS011;22418;51.210;6.976;2024-01-10T14:33:46;30.87;;;13.00;;
36383;SDS011;22418;51.210;6.976;2024-01-10T14:36:17;36.85;;;13.18;;
36383;SDS011;22418;51.210;6.976;2024-01-10T14:38:48;37.53;;;14.03;;
36383;SDS011;22418;51.210;6.976;2024-01-10T14:41:18;41.80;;;13.87;;
36383;SDS011;22418;51.210;6.976;2024-01-10T14:43:49;38.67;;;14.27;;
36383;SDS011;22418;51.210;6.976;2024-01-10T14:46:19;32.75;;;14.18;;
36383;SDS011;22418;51.210;6.976;2024-01-10T14:48:50;43.50;;;15.35;;
36383;SDS011;22418;51.210;6.976;2024-01-10T14:51:21;38.80;;;16.03;;
36383;SDS011;22418;51.210;6.976;2024-01-10T14:53:51;46.37;;;16.30;;
36383;SDS011;22418;51.210;6.976;2024-01-10T14:56:22;41.42;;;17.25;;
36383;SDS011;22418;51.210;6.976;2024-01-10T14:58:53;42.53;;;18.07;;
36383;SDS011;22418;51.210;6.976;2024-01-10T15:01:23;47.17;;;16.95;;
36383;SDS011;22418;51.210;6.976;2024-01-10T15:03:54;39.63;;;16.80;;
36383;SDS011;22418;51.210;6.976;2024-01-10T15:06:24;43.23;;;16.63;;
36383;SDS011;22418;51.210;6.976;2024-01-10T15:08:55;44.75;;;17.42;;
36383;SDS011;22418;51.210;6.976;2024-01-10T15:11:26;49.40;;;17.87;;
36383;SDS011;22418;51.210;6.976;2024-01-10T15:13:56;52.80;;;19.13;;
36383;SDS011;22418;51.210;6.976;2024-01-10T15:16:27;51.30;;;19.83;;
36383;SDS011;22418;51.210;6.976;2024-01-10T15:18:57;46.20;;;18.00;;